Time;durP1;ratioP1;P1;durP2;ratioP2;P2;SDS_P1;SDS_P2;PMS_P1;PMS_P2;Temp;Humidity;BMP_temperature;BMP_pressure;BME280_temperature;BME280_humidity;BME280_pressure;Samples;Min_cycle;Max_cycle;Signal;HPM_P1;HPM_P2
2024/03/02 00:01:42;;;;;;;117.10;110.25;;;7.70;99.90;;;;;;5042988;28;20037;-72
2024/03/02 00:04:08;;;;;;;115.95;108.95;;;7.60;99.90;;;;;;5050590;28;20052;-72
2024/03/02 00:06:35;;;;;;;110.38;103.72;;;7.60;99.90;;;;;;5031701;28;20036;-72
2024/03/02 00:09:01;;;;;;;155.40;146.13;;;7.60;99.90;;;;;;5047786;28;20411;-72
2024/03/02 00:11:27;;;;;;;135.95;127.50;;;7.60;99.90;;;;;;5040149;28;20028;-72
2024/03/02 00:13:54;;;;;;;114.45;107.57;;;7.60;99.90;;;;;;5050791;28;20049;-72
2024/03/02 00:16:20;;;;;;;104.38;98.32;;;7.60;99.90;;;;;;5044950;28;20033;-72
2024/03/02 00:18:46;;;;;;;117.30;109.80;;;7.60;99.90;;;;;;5033250;28;20040;-72
2024/03/02 00:21:13;;;;;;;115.43;107.78;;;7.60;99.90;;;;;;5043868;28;20041;-73
2024/03/02 00:23:39;;;;;;;113.75;106.43;;;7.60;99.90;;;;;;5044089;28;20037;-72
2024/03/02 00:26:05;;;;;;;93.47;87.70;;;7.70;99.90;;;;;;5044834;28;20549;-72
2024/03/02 00:28:35;;;;;;;88.18;82.65;;;7.60;99.90;;;;;;5044989;28;20036;-72
2024/03/02 00:31:05;;;;;;;117.07;109.40;;;7.60;99.90;;;;;;5043714;28;20487;-72
2024/03/02 00:33:36;;;;;;;136.88;128.43;;;7.50;99.90;;;;;;5042947;28;20045;-72
2024/03/02 00:36:03;;;;;;;99.07;93.07;;;7.60;99.90;;;;;;5014889;28;20033;-72
2024/03/02 00:38:32;;;;;;;111.63;104.80;;;7.60;99.90;;;;;;5045161;28;20028;-72
2024/03/02 00:41:00;;;;;;;147.48;139.15;;;7.70;99.90;;;;;;5043797;28;20045;-72
2024/03/02 00:43:45;;;;;;;140.48;131.98;;;7.70;99.90;;;;;;5048782;28;20071;-72
2024/03/02 00:46:12;;;;;;;127.25;119.85;;;7.70;99.90;;;;;;5043728;28;20040;-72
2024/03/02 00:48:39;;;;;;;137.15;128.70;;;7.80;99.90;;;;;;5045187;28;20032;-72
2024/03/02 00:51:05;;;;;;;116.53;109.10;;;7.80;99.90;;;;;;5044496;28;20029;-72
2024/03/02 00:53:32;;;;;;;106.60;100.22;;;7.80;99.90;;;;;;5043463;28;20080;-72
2024/03/02 00:55:59;;;;;;;113.65;106.13;;;7.70;99.90;;;;;;5043944;28;20025;-72
2024/03/02 00:58:25;;;;;;;125.90;117.93;;;7.70;99.90;;;;;;5043894;28;20045;-72
2024/03/02 01:00:51;;;;;;;142.38;133.30;;;7.70;99.90;;;;;;5044114;28;20059;-72
2024/03/02 01:03:19;;;;;;;131.68;123.40;;;7.70;99.90;;;;;;5044731;28;20040;-73
2024/03/02 01:05:45;;;;;;;129.10;121.28;;;7.70;99.90;;;;;;5044981;28;20049;-73
2024/03/02 01:08:11;;;;;;;133.73;125.38;;;7.60;99.90;;;;;;5043975;28;20045;-72
2024/03/02 01:10:37;;;;;;;123.65;115.97;;;7.60;99.90;;;;;;5042299;28;20065;-72
2024/03/02 01:13:03;;;;;;;110.18;103.50;;;7.50;99.90;;;;;;5045220;28;20033;-72
2024/03/02 01:15:29;;;;;;;124.85;116.85;;;7.40;99.90;;;;;;5044081;28;20037;-72
2024/03/02 01:17:56;;;;;;;112.35;105.22;;;7.40;99.90;;;;;;5052070;28;20040;-72
2024/03/02 01:20:22;;;;;;;88.93;83.20;;;7.40;99.90;;;;;;5046136;28;20041;-72
2024/03/02 01:22:48;;;;;;;87.95;81.22;;;7.40;99.90;;;;;;5044073;28;20049;-72
2024/03/02 01:25:14;;;;;;;83.32;78.05;;;7.40;99.90;;;;;;5042035;28;20386;-72
2024/03/02 01:27:40;;;;;;;80.80;75.40;;;7.40;99.90;;;;;;5044145;28;20528;-72
2024/03/02 01:30:07;;;;;;;105.55;99.18;;;7.40;99.90;;;;;;5043169;28;20455;-73
2024/03/02 01:32:33;;;;;;;85.85;80.38;;;7.50;99.90;;;;;;5044270;28;20033;-72
2024/03/02 01:34:59;;;;;;;91.15;84.85;;;7.50;99.90;;;;;;5043735;28;20035;-73
2024/03/02 01:37:25;;;;;;;109.63;102.75;;;7.50;99.90;;;;;;5048999;28;20045;-71
2024/03/02 01:39:51;;;;;;;127.55;119.50;;;7.50;99.90;;;;;;5044657;28;20025;-72
2024/03/02 01:42:17;;;;;;;101.53;95.40;;;7.60;99.90;;;;;;5043021;28;20041;-72
2024/03/02 01:44:43;;;;;;;121.78;113.90;;;7.50;99.90;;;;;;5043436;28;20032;-72
2024/03/02 01:47:09;;;;;;;115.65;108.20;;;7.50;99.90;;;;;;5029964;28;20037;-72
2024/03/02 01:49:36;;;;;;;111.38;104.78;;;7.50;99.90;;;;;;5044624;28;20048;-72
2024/03/02 01:52:02;;;;;;;117.22;110.05;;;7.50;99.90;;;;;;5029904;28;20048;-72
2024/03/02 01:54:28;;;;;;;132.57;124.82;;;7.50;99.90;;;;;;5049603;28;20484;-72
2024/03/02 01:56:54;;;;;;;151.15;142.23;;;7.50;99.90;;;;;;5043994;28;20040;-72
2024/03/02 01:59:20;;;;;;;156.93;147.93;;;7.50;99.90;;;;;;5051080;28;20092;-72
2024/03/02 02:01:46;;;;;;;130.00;122.80;;;7.60;99.90;;;;;;5052058;28;20052;-72
2024/03/02 02:04:13;;;;;;;143.98;135.40;;;7.50;99.90;;;;;;5051890;28;20033;-72
2024/03/02 02:06:39;;;;;;;127.00;119.40;;;7.60;99.90;;;;;;5042674;28;20103;-72
2024/03/02 02:09:08;;;;;;;132.05;124.35;;;7.60;99.90;;;;;;5046086;28;20040;-72
2024/03/02 02:11:34;;;;;;;127.00;119.43;;;7.60;99.90;;;;;;5045246;28;20026;-72
2024/03/02 02:14:00;;;;;;;148.60;139.68;;;7.60;99.90;;;;;;5051831;28;20029;-72
2024/03/02 02:16:26;;;;;;;172.25;162.13;;;7.60;99.90;;;;;;5046252;28;20041;-72
2024/03/02 02:18:52;;;;;;;175.05;164.60;;;7.50;99.90;;;;;;5044388;28;20040;-72
2024/03/02 02:21:22;;;;;;;207.75;195.60;;;7.50;99.90;;;;;;5052613;28;20048;-72
2024/03/02 02:23:50;;;;;;;160.05;150.57;;;7.50;99.90;;;;;;5049226;28;20045;-72
2024/03/02 02:26:16;;;;;;;216.32;203.57;;;7.50;99.90;;;;;;5035542;28;20049;-72
2024/03/02 02:28:47;;;;;;;124.72;117.28;;;7.50;99.90;;;;;;5037432;28;20040;-72
2024/03/02 02:31:13;;;;;;;109.97;103.47;;;7.40;99.90;;;;;;5051155;28;20079;-72
2024/03/02 02:33:40;;;;;;;135.63;127.97;;;7.40;99.90;;;;;;5049150;28;20031;-72
2024/03/02 02:36:06;;;;;;;176.85;166.80;;;7.40;99.90;;;;;;5050213;28;20020;-72
2024/03/02 02:38:33;;;;;;;150.73;141.93;;;7.50;99.90;;;;;;5064042;28;20049;-72
2024/03/02 02:40:59;;;;;;;193.65;182.70;;;7.50;99.90;;;;;;5033852;28;20029;-72
2024/03/02 02:43:25;;;;;;;150.27;141.77;;;7.40;99.90;;;;;;5039976;28;20045;-72
2024/03/02 02:45:51;;;;;;;170.00;160.52;;;7.40;99.90;;;;;;5035418;28;20037;-72
2024/03/02 02:48:17;;;;;;;164.27;155.13;;;7.50;99.90;;;;;;5051137;28;20033;-72
2024/03/02 02:50:43;;;;;;;158.05;149.02;;;7.50;99.90;;;;;;5052071;28;20028;-72
2024/03/02 02:53:09;;;;;;;125.68;118.68;;;7.50;99.90;;;;;;5052002;28;20377;-72
2024/03/02 02:55:40;;;;;;;118.65;111.90;;;7.50;99.90;;;;;;5050833;28;20474;-72
2024/03/02 02:58:06;;;;;;;114.07;107.38;;;7.50;99.90;;;;;;5043780;28;20510;-72
2024/03/02 03:00:32;;;;;;;119.88;113.15;;;7.50;99.90;;;;;;5049289;28;20037;-72
2024/03/02 03:02:59;;;;;;;121.28;114.38;;;7.60;99.90;;;;;;5045940;28;20056;-72
2024/03/02 03:05:25;;;;;;;108.95;102.85;;;7.60;99.90;;;;;;5039208;28;20049;-72
2024/03/02 03:07:51;;;;;;;114.32;108.18;;;7.70;99.90;;;;;;5037491;28;20372;-73
2024/03/02 03:10:17;;;;;;;160.35;151.68;;;7.60;99.90;;;;;;5038329;28;20030;-72
2024/03/02 03:12:43;;;;;;;154.77;146.05;;;7.50;99.90;;;;;;5050422;28;20033;-72
2024/03/02 03:15:10;;;;;;;150.25;141.82;;;7.60;99.90;;;;;;5039749;28;20041;-72
2024/03/02 03:17:37;;;;;;;165.35;156.40;;;7.60;99.90;;;;;;5042855;28;20475;-72
2024/03/02 03:20:04;;;;;;;148.63;140.40;;;7.50;99.90;;;;;;5048196;28;20390;-73
2024/03/02 03:22:35;;;;;;;172.35;162.85;;;7.60;99.90;;;;;;5049991;28;20060;-72
2024/03/02 03:25:01;;;;;;;120.93;114.10;;;7.60;99.90;;;;;;5040372;28;20045;-73
2024/03/02 03:27:27;;;;;;;159.90;150.93;;;7.50;99.90;;;;;;5048899;28;20498;-72
2024/03/02 03:29:54;;;;;;;162.02;152.85;;;7.50;99.90;;;;;;5048968;28;20515;-72
2024/03/02 03:32:20;;;;;;;111.95;105.88;;;7.50;99.90;;;;;;5048285;28;20402;-73
2024/03/02 03:34:47;;;;;;;116.70;110.28;;;7.40;99.90;;;;;;5045352;28;20029;-72
2024/03/02 03:37:14;;;;;;;94.80;89.65;;;7.30;99.90;;;;;;5044677;28;20041;-72
2024/03/02 03:39:40;;;;;;;123.45;116.57;;;7.20;99.90;;;;;;5049836;28;20036;-73
2024/03/02 03:42:06;;;;;;;114.32;108.15;;;7.20;99.90;;;;;;5050439;28;20045;-73
2024/03/02 03:44:33;;;;;;;117.32;110.85;;;7.20;99.90;;;;;;5048134;28;20049;-72
2024/03/02 03:47:00;;;;;;;136.82;129.55;;;7.20;99.90;;;;;;5051396;28;20044;-73
2024/03/02 03:49:26;;;;;;;125.32;118.68;;;7.20;99.90;;;;;;5041948;28;20030;-72
2024/03/02 03:51:53;;;;;;;113.43;107.32;;;7.10;99.90;;;;;;5035102;28;20426;-72
2024/03/02 03:54:19;;;;;;;94.28;88.97;;;7.10;99.90;;;;;;5046336;28;20507;-73
2024/03/02 03:56:45;;;;;;;83.88;79.50;;;7.20;99.90;;;;;;5050736;28;20039;-73
2024/03/02 03:59:11;;;;;;;77.65;73.45;;;7.30;99.90;;;;;;5048623;28;20041;-73
2024/03/02 04:01:37;;;;;;;88.57;83.80;;;7.40;99.90;;;;;;5046270;28;20113;-72
2024/03/02 04:04:03;;;;;;;104.78;99.22;;;7.40;99.90;;;;;;5048131;28;20038;-73
2024/03/02 04:06:30;;;;;;;91.97;87.10;;;7.40;99.90;;;;;;5051851;28;20033;-72
2024/03/02 04:08:56;;;;;;;101.03;95.47;;;7.40;99.90;;;;;;5055233;28;20064;-73
2024/03/02 04:11:22;;;;;;;87.20;82.15;;;7.40;99.90;;;;;;5054605;28;20028;-72
2024/03/02 04:13:48;;;;;;;87.07;82.40;;;7.40;99.90;;;;;;5055284;28;20037;-72
2024/03/02 04:16:14;;;;;;;81.80;77.43;;;7.50;99.90;;;;;;5052901;28;20044;-72
2024/03/02 04:18:40;;;;;;;87.75;82.55;;;7.50;99.90;;;;;;5050278;28;20047;-72
2024/03/02 04:21:06;;;;;;;90.43;85.22;;;7.60;99.90;;;;;;5051604;28;20391;-72
2024/03/02 04:23:32;;;;;;;88.38;83.40;;;7.50;99.90;;;;;;5053804;28;20048;-72
2024/03/02 04:25:58;;;;;;;100.05;94.72;;;7.50;99.90;;;;;;5050791;28;20379;-72
2024/03/02 04:28:24;;;;;;;80.47;75.88;;;7.60;99.90;;;;;;5037146;28;20040;-72
2024/03/02 04:30:50;;;;;;;94.35;89.40;;;7.50;99.90;;;;;;5035537;28;20475;-72
2024/03/02 04:33:17;;;;;;;78.85;74.32;;;7.50;99.90;;;;;;5052920;28;20033;-72
2024/03/02 04:35:43;;;;;;;74.60;70.45;;;7.50;99.90;;;;;;5053844;28;20043;-72
2024/03/02 04:38:09;;;;;;;75.00;70.80;;;7.50;99.90;;;;;;5048887;28;20044;-72
2024/03/02 04:40:35;;;;;;;119.95;113.40;;;7.40;99.90;;;;;;5036593;28;20040;-72
2024/03/02 04:43:01;;;;;;;157.82;148.63;;;7.30;99.90;;;;;;5043719;28;20423;-72
2024/03/02 04:45:27;;;;;;;103.82;97.70;;;7.20;99.90;;;;;;5052900;28;20040;-72
2024/03/02 04:47:53;;;;;;;109.90;103.65;;;7.10;99.90;;;;;;5054136;28;20032;-72
2024/03/02 04:50:19;;;;;;;101.43;95.53;;;7.00;99.90;;;;;;5041198;28;20049;-72
2024/03/02 04:52:45;;;;;;;86.88;81.78;;;7.00;99.90;;;;;;5040489;28;20041;-72
2024/03/02 04:57:54;;;;;;;;;;;7.10;99.90;;;;;;5047522;28;20040;-72
2024/03/02 05:00:21;;;;;;;100.35;94.53;;;7.10;99.90;;;;;;5039207;28;19909;-72
2024/03/02 05:02:47;;;;;;;107.15;100.60;;;7.10;99.90;;;;;;5039455;28;20045;-72
2024/03/02 05:05:15;;;;;;;101.50;95.45;;;7.10;99.90;;;;;;5034490;28;20017;-73
2024/03/02 05:07:43;;;;;;;120.22;112.80;;;7.10;99.90;;;;;;5044849;28;20125;-72
2024/03/02 05:10:11;;;;;;;76.55;72.18;;;7.10;99.90;;;;;;5052209;28;20020;-73
2024/03/02 05:15:14;;;;;;;111.05;104.38;;;7.10;99.90;;;;;;5035558;28;20032;-73
2024/03/02 05:17:42;;;;;;;78.60;73.93;;;7.00;99.90;;;;;;5053811;28;20021;-72
2024/03/02 05:20:08;;;;;;;106.25;99.10;;;7.00;99.90;;;;;;5038241;28;20025;-72
2024/03/02 05:22:35;;;;;;;80.95;75.32;;;7.00;99.90;;;;;;5041254;28;20045;-72
2024/03/02 05:25:01;;;;;;;96.20;73.75;;;7.00;99.90;;;;;;5034035;28;20048;-72
2024/03/02 05:27:28;;;;;;;73.40;68.83;;;7.10;99.90;;;;;;5034653;28;20033;-73
2024/03/02 05:29:54;;;;;;;97.70;91.32;;;7.10;99.90;;;;;;5033838;28;20084;-73
2024/03/02 05:32:20;;;;;;;80.00;74.90;;;7.10;99.90;;;;;;5041952;28;20495;-72
2024/03/02 05:34:46;;;;;;;80.53;75.15;;;7.20;99.90;;;;;;5040095;28;20033;-72
2024/03/02 05:37:12;;;;;;;88.28;82.50;;;7.20;99.90;;;;;;5050543;28;20032;-72
2024/03/02 05:39:38;;;;;;;88.13;82.97;;;7.20;99.90;;;;;;5053059;28;20033;-72
2024/03/02 05:42:04;;;;;;;89.03;83.03;;;7.20;99.90;;;;;;5049129;28;20497;-73
2024/03/02 05:44:30;;;;;;;90.25;84.63;;;7.20;99.90;;;;;;5046638;28;20048;-72
2024/03/02 05:46:56;;;;;;;88.32;82.63;;;7.20;99.90;;;;;;5047676;28;20505;-72
2024/03/02 05:49:22;;;;;;;93.88;87.85;;;7.20;99.90;;;;;;5053692;28;20025;-72
2024/03/02 05:51:49;;;;;;;99.88;93.95;;;7.20;99.90;;;;;;5040610;28;20037;-72
2024/03/02 05:54:15;;;;;;;81.40;75.82;;;7.30;99.90;;;;;;5033630;28;20036;-72
2024/03/02 05:56:41;;;;;;;85.78;80.13;;;7.30;99.90;;;;;;5033160;28;20032;-72
2024/03/02 05:59:12;;;;;;;101.00;94.45;;;7.30;99.90;;;;;;5040317;28;20470;-73
2024/03/02 06:01:50;;;;;;;81.60;76.38;;;7.30;99.90;;;;;;5051217;28;20040;-72
2024/03/02 06:04:16;;;;;;;97.93;91.85;;;7.30;99.90;;;;;;5051348;28;20033;-73
2024/03/02 06:06:42;;;;;;;93.90;87.90;;;7.30;99.90;;;;;;5043843;28;20037;-72
2024/03/02 06:09:09;;;;;;;96.57;90.38;;;7.30;99.90;;;;;;5049914;28;20037;-73
2024/03/02 06:11:36;;;;;;;96.30;90.30;;;7.30;99.90;;;;;;5040600;28;20034;-73
2024/03/02 06:14:03;;;;;;;117.00;109.35;;;7.30;99.90;;;;;;5043726;28;20048;-73
2024/03/02 06:16:29;;;;;;;109.75;102.75;;;7.30;99.90;;;;;;5049472;28;20025;-73
2024/03/02 06:18:57;;;;;;;124.57;116.80;;;7.40;99.90;;;;;;5052818;28;20041;-73
2024/03/02 06:21:24;;;;;;;97.57;91.07;;;7.40;99.90;;;;;;5039128;28;20056;-73
2024/03/02 06:23:50;;;;;;;111.30;104.38;;;7.40;99.90;;;;;;5031767;28;20036;-73
2024/03/02 06:26:16;;;;;;;101.78;95.30;;;7.50;99.90;;;;;;5032806;28;20032;-73
2024/03/02 06:28:45;;;;;;;109.20;102.25;;;7.50;99.90;;;;;;5032998;28;20029;-73
2024/03/02 06:31:11;;;;;;;99.40;93.32;;;7.40;99.90;;;;;;5043469;28;20041;-74
2024/03/02 06:33:38;;;;;;;119.63;112.57;;;7.40;99.90;;;;;;5051318;28;20033;-74
2024/03/02 06:36:04;;;;;;;133.52;125.40;;;7.50;99.90;;;;;;5050662;28;20029;-74
2024/03/02 06:38:32;;;;;;;107.63;101.57;;;7.50;99.90;;;;;;5052665;28;20048;-72
2024/03/02 06:40:58;;;;;;;111.93;105.13;;;7.50;99.90;;;;;;5043348;28;20030;-75
2024/03/02 06:43:24;;;;;;;100.05;93.88;;;7.50;99.90;;;;;;5032546;28;20056;-72
2024/03/02 06:45:50;;;;;;;100.20;93.88;;;7.60;99.90;;;;;;5031745;28;20484;-73
2024/03/02 06:48:19;;;;;;;81.78;76.47;;;7.60;99.90;;;;;;5032648;28;20033;-74
2024/03/02 06:50:49;;;;;;;91.68;85.80;;;7.60;99.90;;;;;;5038776;28;20033;-74
2024/03/02 06:53:19;;;;;;;83.82;78.82;;;7.50;99.90;;;;;;5052564;28;20025;-74
2024/03/02 06:55:45;;;;;;;81.93;77.00;;;7.50;99.90;;;;;;5051060;28;20391;-74
2024/03/02 06:58:17;;;;;;;83.85;77.70;;;7.50;99.90;;;;;;5051210;28;20029;-74
2024/03/02 07:00:47;;;;;;;87.07;81.80;;;7.50;99.90;;;;;;5050863;28;20032;-75
2024/03/02 07:03:13;;;;;;;106.57;100.13;;;7.50;99.90;;;;;;5052313;28;20049;-75
2024/03/02 07:05:39;;;;;;;116.07;108.78;;;7.60;99.90;;;;;;5052152;28;20037;-74
2024/03/02 07:08:06;;;;;;;125.82;117.65;;;7.60;99.90;;;;;;5051282;28;20037;-75
2024/03/02 07:10:32;;;;;;;94.90;88.97;;;7.70;99.90;;;;;;5031799;28;20040;-74
2024/03/02 07:12:58;;;;;;;98.25;92.63;;;7.70;99.90;;;;;;5032912;28;20047;-74
2024/03/02 07:17:53;;;;;;;104.43;97.85;;;7.70;99.90;;;;;;5038448;28;20029;-74
2024/03/02 07:20:19;;;;;;;103.38;97.25;;;7.70;99.90;;;;;;5033801;28;20037;-74
2024/03/02 07:22:45;;;;;;;100.18;93.93;;;7.70;99.90;;;;;;5051677;28;20463;-74
2024/03/02 07:25:12;;;;;;;83.68;78.72;;;7.70;99.90;;;;;;5051913;28;20029;-75
2024/03/02 07:27:38;;;;;;;103.57;97.75;;;7.70;99.90;;;;;;5051569;28;20049;-74
2024/03/02 07:30:05;;;;;;;98.13;92.07;;;7.70;99.90;;;;;;5050032;28;20025;-74
2024/03/02 07:32:32;;;;;;;107.85;101.82;;;7.70;99.90;;;;;;5051115;28;20048;-74
2024/03/02 07:34:58;;;;;;;139.63;131.65;;;7.70;99.90;;;;;;5043247;28;20032;-74
2024/03/02 07:37:24;;;;;;;137.98;129.80;;;7.70;99.90;;;;;;5051488;28;20036;-74
2024/03/02 07:39:50;;;;;;;135.82;128.05;;;7.80;99.90;;;;;;5037361;28;20045;-74
2024/03/02 07:42:17;;;;;;;114.57;108.18;;;7.80;99.90;;;;;;5047111;28;20052;-74
2024/03/02 07:44:45;;;;;;;132.07;124.25;;;7.80;99.90;;;;;;5051807;28;20025;-74
2024/03/02 07:47:11;;;;;;;150.00;141.15;;;7.90;99.90;;;;;;5051079;28;20048;-74
2024/03/02 07:49:37;;;;;;;208.82;196.82;;;8.00;99.90;;;;;;5050511;28;20029;-74
2024/03/02 07:52:03;;;;;;;192.38;180.90;;;7.90;99.90;;;;;;5050330;28;20044;-74
2024/03/02 07:54:29;;;;;;;155.98;146.70;;;7.90;99.90;;;;;;5031677;28;20030;-74
2024/03/02 07:56:56;;;;;;;173.30;163.68;;;7.90;99.90;;;;;;5046167;28;20487;-74
2024/03/02 07:59:22;;;;;;;163.18;153.98;;;7.90;99.90;;;;;;5051715;28;20088;-74
2024/03/02 08:01:49;;;;;;;166.43;156.88;;;7.90;99.90;;;;;;5047599;28;20510;-74
2024/03/02 08:04:15;;;;;;;85.15;80.45;;;8.00;99.90;;;;;;5031698;28;20041;-74
2024/03/02 08:06:41;;;;;;;142.50;134.57;;;8.00;99.90;;;;;;5043931;28;20033;-74
2024/03/02 08:09:10;;;;;;;142.98;135.15;;;8.10;99.90;;;;;;5033398;28;20040;-74
2024/03/02 08:11:37;;;;;;;157.48;148.98;;;8.10;99.90;;;;;;5042993;28;20395;-74
2024/03/02 08:14:03;;;;;;;96.40;90.97;;;8.10;99.90;;;;;;5035177;28;20049;-74
2024/03/02 08:16:29;;;;;;;119.50;112.43;;;8.10;99.90;;;;;;5041609;28;20395;-74
2024/03/02 08:18:57;;;;;;;115.45;108.95;;;8.20;99.90;;;;;;5050230;28;20033;-74
2024/03/02 08:21:24;;;;;;;126.22;119.45;;;8.20;99.90;;;;;;5051076;28;20498;-74
2024/03/02 08:23:50;;;;;;;115.90;108.95;;;8.20;99.90;;;;;;5051572;28;20045;-74
2024/03/02 08:26:16;;;;;;;115.32;109.15;;;8.30;99.90;;;;;;5049622;28;20041;-74
2024/03/02 08:28:42;;;;;;;115.05;108.70;;;8.40;99.90;;;;;;5051614;28;20037;-74
2024/03/02 08:31:09;;;;;;;138.82;131.10;;;8.50;99.90;;;;;;5050616;28;20037;-74
2024/03/02 08:33:35;;;;;;;132.68;125.55;;;8.50;99.90;;;;;;5051603;28;20463;-74
2024/03/02 08:36:02;;;;;;;136.85;129.43;;;8.60;99.90;;;;;;5054724;28;20036;-74
2024/03/02 08:38:28;;;;;;;139.50;131.98;;;8.60;99.90;;;;;;5053606;28;20375;-74
2024/03/02 08:40:54;;;;;;;136.20;128.57;;;8.60;99.90;;;;;;5054192;28;20509;-74
2024/03/02 08:43:22;;;;;;;132.73;125.28;;;8.60;99.90;;;;;;5036705;28;20052;-75
2024/03/02 08:45:48;;;;;;;140.55;132.77;;;8.60;99.90;;;;;;5052397;28;20032;-74
2024/03/02 08:48:14;;;;;;;137.75;130.48;;;8.70;99.90;;;;;;5053644;28;20032;-74
2024/03/02 08:50:41;;;;;;;150.43;142.27;;;8.80;99.90;;;;;;5054393;28;20028;-74
2024/03/02 08:53:07;;;;;;;134.73;127.20;;;8.80;99.90;;;;;;5051850;28;20521;-74
2024/03/02 08:55:33;;;;;;;156.05;147.50;;;8.80;99.90;;;;;;5038101;28;20044;-74
2024/03/02 08:57:59;;;;;;;128.48;121.25;;;8.80;99.90;;;;;;5039666;28;20403;-74
2024/03/02 09:00:25;;;;;;;144.52;136.35;;;8.70;99.90;;;;;;5045166;28;20025;-74
2024/03/02 09:02:51;;;;;;;133.48;125.88;;;8.70;99.90;;;;;;5040975;28;20045;-74
2024/03/02 09:05:17;;;;;;;126.65;119.70;;;8.80;99.90;;;;;;5035182;28;20040;-74
2024/03/02 09:07:43;;;;;;;142.52;134.73;;;8.80;99.90;;;;;;5033760;28;20033;-74
2024/03/02 09:10:09;;;;;;;137.23;129.70;;;8.80;99.90;;;;;;5033551;28;20029;-74
2024/03/02 09:12:35;;;;;;;133.27;125.85;;;8.80;99.90;;;;;;5033825;28;20037;-74
2024/03/02 09:15:03;;;;;;;141.68;134.20;;;8.80;99.90;;;;;;5034089;28;20495;-74
2024/03/02 09:17:29;;;;;;;192.80;182.30;;;8.70;99.90;;;;;;5052061;28;20036;-74
2024/03/02 09:19:55;;;;;;;219.90;207.73;;;8.70;99.90;;;;;;5052743;28;20056;-73
2024/03/02 09:22:21;;;;;;;168.20;158.93;;;8.70;99.90;;;;;;5053572;28;20059;-74
2024/03/02 09:24:48;;;;;;;171.68;162.35;;;8.70;99.90;;;;;;5053670;28;20032;-74
2024/03/02 09:27:14;;;;;;;178.05;167.73;;;8.90;99.90;;;;;;5052413;28;20037;-74
2024/03/02 09:29:40;;;;;;;199.57;188.35;;;8.80;99.90;;;;;;5049175;28;20033;-74
2024/03/02 09:32:06;;;;;;;189.38;178.52;;;8.80;99.90;;;;;;5053140;28;20033;-74
2024/03/02 09:34:33;;;;;;;185.02;174.93;;;8.90;99.90;;;;;;5050586;28;20033;-74
2024/03/02 09:37:00;;;;;;;173.27;163.73;;;8.80;99.90;;;;;;5051712;28;20048;-74
2024/03/02 09:39:26;;;;;;;183.38;173.20;;;8.80;99.90;;;;;;5049478;28;20048;-74
2024/03/02 09:41:52;;;;;;;190.70;180.32;;;8.80;99.90;;;;;;5035620;28;20049;-73
2024/03/02 09:44:19;;;;;;;204.35;192.88;;;8.80;99.90;;;;;;5034774;28;20045;-74
2024/03/02 09:46:49;;;;;;;179.93;169.88;;;8.80;99.90;;;;;;5036872;28;20044;-73
2024/03/02 09:49:15;;;;;;;224.88;212.57;;;8.80;99.90;;;;;;5033597;28;20472;-74
2024/03/02 09:51:41;;;;;;;109.53;103.25;;;8.80;99.90;;;;;;5044443;28;20037;-70
2024/03/02 09:54:07;;;;;;;166.93;157.55;;;8.90;99.90;;;;;;5042961;28;20045;-73
2024/03/02 09:56:33;;;;;;;209.15;197.25;;;9.00;99.90;;;;;;5035222;28;20341;-74
2024/03/02 09:59:00;;;;;;;192.52;181.70;;;9.00;99.90;;;;;;5033471;28;20040;-74
2024/03/02 10:01:26;;;;;;;167.90;158.57;;;9.00;99.90;;;;;;5042058;28;20033;-74
2024/03/02 10:03:52;;;;;;;198.40;187.10;;;9.10;99.90;;;;;;5044576;28;20048;-74
2024/03/02 10:06:27;;;;;;;194.73;183.80;;;9.10;99.90;;;;;;5024238;28;20032;-74
2024/03/02 10:08:54;;;;;;;156.02;147.15;;;9.10;99.90;;;;;;5043055;28;20360;-74
2024/03/02 10:11:34;;;;;;;177.85;167.93;;;9.00;99.90;;;;;;5044801;28;20036;-74
2024/03/02 10:14:15;;;;;;;161.80;152.70;;;8.90;99.90;;;;;;5043184;28;20029;-74
2024/03/02 10:16:43;;;;;;;155.02;146.02;;;8.90;99.90;;;;;;5048517;28;20052;-74
2024/03/02 10:19:18;;;;;;;133.77;126.40;;;8.90;99.90;;;;;;5046679;28;20483;-74
2024/03/02 10:21:51;;;;;;;146.95;138.85;;;8.90;99.90;;;;;;5050719;28;20048;-74
2024/03/02 10:24:17;;;;;;;104.95;99.18;;;8.80;99.90;;;;;;5046543;28;20053;-74
2024/03/02 10:26:43;;;;;;;152.10;143.38;;;8.80;99.90;;;;;;5050726;28;20025;-74
2024/03/02 10:29:10;;;;;;;139.20;131.20;;;8.80;99.90;;;;;;5043638;28;20033;-74
2024/03/02 10:31:41;;;;;;;160.80;150.73;;;8.90;99.90;;;;;;5034455;28;20042;-73
2024/03/02 10:34:10;;;;;;;126.47;119.35;;;8.90;99.90;;;;;;5032481;28;20040;-74
2024/03/02 10:36:37;;;;;;;136.82;129.23;;;9.00;99.90;;;;;;5046607;28;20475;-74
2024/03/02 10:39:06;;;;;;;179.68;168.73;;;9.00;99.90;;;;;;5051741;28;20040;-74
2024/03/02 10:41:34;;;;;;;157.45;148.43;;;9.10;99.90;;;;;;5042377;28;20036;-73
2024/03/02 10:44:02;;;;;;;188.40;177.63;;;9.20;99.90;;;;;;5049658;28;20376;-74
2024/03/02 10:46:29;;;;;;;176.05;166.05;;;9.20;99.90;;;;;;5040214;28;20384;-74
2024/03/02 10:49:00;;;;;;;141.38;133.07;;;9.30;99.90;;;;;;5033981;28;20057;-74
2024/03/02 10:51:33;;;;;;;236.35;222.82;;;9.40;99.90;;;;;;5040538;28;20037;-74
2024/03/02 10:54:00;;;;;;;236.23;222.32;;;9.40;99.90;;;;;;5043233;28;20483;-74
2024/03/02 10:56:47;;;;;;;212.43;199.82;;;9.40;99.90;;;;;;5049475;28;20060;-74
2024/03/02 10:59:32;;;;;;;216.38;203.68;;;9.30;99.90;;;;;;5030427;28;20041;-74
2024/03/02 11:01:59;;;;;;;226.27;213.40;;;9.30;99.90;;;;;;5046608;28;20041;-74
2024/03/02 11:04:29;;;;;;;266.15;250.57;;;9.40;99.90;;;;;;5041741;28;20044;-74
2024/03/02 11:06:59;;;;;;;253.93;239.23;;;9.40;99.90;;;;;;5030783;28;20044;-74
2024/03/02 11:09:27;;;;;;;286.40;269.57;;;9.40;99.90;;;;;;5040746;28;20041;-74
2024/03/02 11:12:03;;;;;;;227.57;214.63;;;9.30;99.90;;;;;;5044298;28;20368;-74
2024/03/02 11:14:31;;;;;;;220.07;207.90;;;9.30;99.90;;;;;;5044904;28;20047;-74
2024/03/02 11:16:57;;;;;;;211.63;199.88;;;9.30;99.90;;;;;;5047996;28;20399;-74
2024/03/02 11:19:24;;;;;;;200.90;189.40;;;9.30;99.90;;;;;;5047622;28;20048;-75
2024/03/02 11:21:50;;;;;;;213.57;201.60;;;9.30;99.90;;;;;;5049899;28;20029;-74
2024/03/02 11:24:27;;;;;;;211.35;199.65;;;9.20;99.90;;;;;;5050597;28;20056;-74
2024/03/02 11:26:53;;;;;;;185.32;175.10;;;9.20;99.90;;;;;;5047909;28;20041;-74
2024/03/02 11:29:40;;;;;;;209.82;198.48;;;9.10;99.90;;;;;;5051861;28;20040;-74
2024/03/02 11:32:13;;;;;;;254.40;239.60;;;9.10;99.90;;;;;;5047997;28;20036;-74
2024/03/02 11:34:39;;;;;;;198.27;186.65;;;9.20;99.90;;;;;;5049214;28;20033;-74
2024/03/02 11:37:05;;;;;;;229.68;216.32;;;9.30;99.90;;;;;;5032227;28;20037;-74
2024/03/02 11:39:32;;;;;;;198.32;186.93;;;9.30;99.90;;;;;;5049073;28;20048;-74
2024/03/02 11:41:58;;;;;;;230.80;217.05;;;9.30;99.90;;;;;;5045975;28;20037;-74
2024/03/02 11:44:27;;;;;;;221.13;208.18;;;9.30;99.90;;;;;;5034803;28;20056;-74
2024/03/02 11:46:59;;;;;;;251.45;236.82;;;9.20;99.90;;;;;;5036593;28;20037;-74
2024/03/02 11:49:43;;;;;;;225.98;212.98;;;9.20;99.90;;;;;;5029676;28;20040;-74
2024/03/02 11:52:10;;;;;;;209.85;197.75;;;9.20;99.90;;;;;;5045609;28;20044;-74
2024/03/02 11:54:39;;;;;;;215.80;203.45;;;9.30;99.90;;;;;;5049381;28;20479;-73
2024/03/02 11:57:06;;;;;;;204.63;193.15;;;9.30;99.90;;;;;;5048134;28;20480;-73
2024/03/02 11:59:32;;;;;;;252.57;237.85;;;9.30;99.90;;;;;;5044485;28;20041;-73
2024/03/02 12:01:59;;;;;;;238.38;224.75;;;9.30;99.90;;;;;;5036006;28;20483;-73
2024/03/02 12:04:25;;;;;;;214.73;202.60;;;9.30;99.90;;;;;;5047162;28;20071;-73
2024/03/02 12:06:55;;;;;;;208.95;196.77;;;9.30;99.90;;;;;;5038196;28;20373;-73
2024/03/02 12:09:22;;;;;;;226.93;213.98;;;9.20;99.90;;;;;;5032488;28;20049;-73
2024/03/02 12:11:48;;;;;;;220.25;207.73;;;9.20;99.90;;;;;;5037190;28;20037;-74
2024/03/02 12:14:14;;;;;;;235.25;221.93;;;9.20;99.90;;;;;;5054931;28;20029;-73
2024/03/02 12:16:44;;;;;;;214.75;202.70;;;9.20;99.90;;;;;;5053294;28;20048;-73
2024/03/02 12:19:10;;;;;;;197.70;186.57;;;9.30;99.90;;;;;;5054696;28;20032;-73
2024/03/02 12:21:37;;;;;;;193.65;182.77;;;9.30;99.90;;;;;;5042873;28;20056;-73
2024/03/02 12:24:03;;;;;;;245.45;231.35;;;9.30;99.90;;;;;;5033605;28;20044;-73
2024/03/02 12:26:29;;;;;;;221.77;209.07;;;9.30;99.90;;;;;;5027062;28;20029;-73
2024/03/02 12:28:55;;;;;;;217.88;205.68;;;9.30;99.90;;;;;;5040551;28;20479;-74
2024/03/02 12:31:21;;;;;;;227.77;214.50;;;9.30;99.90;;;;;;5043770;28;20040;-73